This is the latest recevied weather packets stored in our database for station/object AB0TJ. If no packets are shown the sender has not sent any weather packets the latest 10 day(s).
| Time | Temp. | Humidity | Pressure | Rain* | Wind** | Luminosity | Snow |
|---|---|---|---|---|---|---|---|
| 1777989712 | 11.11° C | 70% | 1008.3 hPa | 0 mm | - | 157 W/m² | - |
| 1777989159 | 10° C | 72% | 1008.3 hPa | 0 mm | - | 120 W/m² | - |
| 1777988644 | 8.89° C | 76% | 1008.3 hPa | 0 mm | - | 109 W/m² | - |
| 1777988153 | 8.33° C | 79% | 1008.2 hPa | 0 mm | - | 74 W/m² | - |
| 1777987619 | 7.78° C | 81% | 1008.1 hPa | 0 mm | - | 47 W/m² | - |
| 1777987033 | 7.22° C | 82% | 1008.1 hPa | 0 mm | - | 32 W/m² | - |
| 1777986449 | 7.22° C | 83% | 1008 hPa | 0 mm | - | 28 W/m² | - |
| 1777985859 | 6.67° C | 84% | 1007.8 hPa | 0 mm | - | 23 W/m² | - |
| 1777985269 | 6.67° C | 83% | 1007.8 hPa | 0 mm | - | 19 W/m² | - |
| 1777984784 | 6.67° C | 83% | 1007.8 hPa | 0 mm | - | 14 W/m² | - |
| 1777984239 | 6.67° C | 83% | 1007.8 hPa | 0 mm | - | 10 W/m² | - |
| 1777983704 | 7.22° C | 82% | 1007.7 hPa | 0 mm | - | 5 W/m² | - |
| 1777983114 | 7.22° C | 81% | 1007.7 hPa | 0 mm | - | 2 W/m² | - |
| 1777982549 | 7.22° C | 81% | 1008.1 hPa | 0 mm | - | 0 W/m² | - |
| 1777981989 | 7.22° C | 81% | 1007.6 hPa | 0 mm | - | 0 W/m² | - |
| 1777981479 | 7.78° C | 81% | 1007.5 hPa | 0 mm | - | 0 W/m² | - |
| 1777980899 | 7.78° C | 80% | 1007.5 hPa | 0 mm | - | 0 W/m² | - |
| 1777980334 | 7.78° C | 79% | 1007.4 hPa | 0 mm | - | 0 W/m² | - |
| 1777979784 | 8.33° C | 79% | 1008.1 hPa | 0 mm | - | 0 W/m² | - |
| 1777979217 | 8.33° C | 78% | 1007.4 hPa | 0 mm | - | 0 W/m² | - |
| 1777978726 | 8.33° C | 77% | 1007.5 hPa | 0 mm | - | 0 W/m² | - |
| 1777978209 | 8.33° C | 77% | 1007.5 hPa | 0 mm | - | 0 W/m² | - |
| 1777977729 | 8.89° C | 77% | 1007.5 hPa | 0 mm | - | 0 W/m² | - |
| 1777977235 | 8.89° C | 77% | 1007.5 hPa | 0 mm | - | 0 W/m² | - |
| 1777976639 | 8.89° C | 77% | 1007.6 hPa | 0 mm | - | 0 W/m² | - |
* Rain latest hour (hover to see other rain measurements)
** Current wind speed in m/s (hover to see current wind gust speed)